createdAt,value
2018-08-12T00:01:22.703Z,2.57
2018-08-12T00:03:50.557Z,2.67
2018-08-12T00:06:18.385Z,2.30
2018-08-12T00:08:46.164Z,2.77
2018-08-12T00:11:13.969Z,2.30
2018-08-12T00:13:41.727Z,2.60
2018-08-12T00:16:09.585Z,2.40
2018-08-12T00:18:37.401Z,2.40
2018-08-12T00:21:05.422Z,2.40
2018-08-12T00:23:33.269Z,2.43
2018-08-12T00:26:01.036Z,2.47
2018-08-12T00:28:28.917Z,2.70
2018-08-12T00:30:56.722Z,2.20
2018-08-12T00:33:24.545Z,2.20
2018-08-12T00:35:52.332Z,2.73
2018-08-12T00:38:20.115Z,2.80
2018-08-12T00:40:47.941Z,2.27
2018-08-12T00:43:15.921Z,2.13
2018-08-12T00:45:43.651Z,2.40
2018-08-12T00:48:11.427Z,2.30
2018-08-12T00:50:39.217Z,2.17
2018-08-12T00:53:06.987Z,2.43
2018-08-12T00:55:34.763Z,2.20
2018-08-12T00:58:02.539Z,2.33
2018-08-12T01:00:30.373Z,2.30
2018-08-12T01:02:58.143Z,1.90
2018-08-12T01:05:26.074Z,2.40
2018-08-12T01:07:53.926Z,2.23
2018-08-12T01:10:21.665Z,2.30
2018-08-12T01:12:49.442Z,2.20
2018-08-12T01:15:21.266Z,2.03
2018-08-12T01:17:49.148Z,2.10
2018-08-12T01:20:19.621Z,2.10
2018-08-12T01:22:47.525Z,2.17
2018-08-12T01:25:15.333Z,2.37
2018-08-12T01:27:43.295Z,2.33
2018-08-12T01:30:13.597Z,2.23
2018-08-12T01:32:41.896Z,2.23
2018-08-12T01:35:10.723Z,2.80
2018-08-12T01:37:38.788Z,2.53
2018-08-12T01:40:08.705Z,2.70
2018-08-12T01:42:36.818Z,2.40
2018-08-12T01:45:04.939Z,2.83
2018-08-12T01:47:32.869Z,2.80
2018-08-12T01:50:00.761Z,2.30
2018-08-12T01:52:29.011Z,2.40
2018-08-12T01:54:56.895Z,2.47
2018-08-12T01:57:24.675Z,2.50
2018-08-12T01:59:52.415Z,2.10
2018-08-12T02:02:20.253Z,2.10
2018-08-12T02:04:48.022Z,2.40
2018-08-12T02:07:15.835Z,2.23
2018-08-12T02:09:43.612Z,2.30
2018-08-12T02:12:11.401Z,2.20
2018-08-12T02:14:39.164Z,2.37
2018-08-12T02:17:07.232Z,2.07
2018-08-12T02:19:34.943Z,2.20
2018-08-12T02:22:02.723Z,1.90
2018-08-12T02:24:30.449Z,2.10
2018-08-12T02:26:58.271Z,2.20
2018-08-12T02:29:25.994Z,2.30
2018-08-12T02:31:53.705Z,1.90
2018-08-12T02:34:21.463Z,2.17
2018-08-12T02:36:49.215Z,2.43
2018-08-12T02:39:16.952Z,2.10
2018-08-12T02:41:44.803Z,2.07
2018-08-12T02:44:12.523Z,2.47
2018-08-12T02:46:40.321Z,1.87
2018-08-12T02:49:08.121Z,2.17
2018-08-12T02:51:35.888Z,2.03
2018-08-12T02:54:03.736Z,2.03
2018-08-12T02:56:31.483Z,2.00
2018-08-12T02:58:59.234Z,2.03
2018-08-12T03:01:27.008Z,1.77
2018-08-12T03:03:54.789Z,2.20
2018-08-12T03:06:22.513Z,2.27
2018-08-12T03:08:50.298Z,2.37
2018-08-12T03:11:18.044Z,2.53
2018-08-12T03:13:45.812Z,2.70
2018-08-12T03:16:13.542Z,2.70
2018-08-12T03:18:41.337Z,2.50
2018-08-12T03:21:09.158Z,3.00
2018-08-12T03:23:36.945Z,2.60
2018-08-12T03:26:04.811Z,2.93
2018-08-12T03:28:32.544Z,2.50
2018-08-12T03:31:00.355Z,2.93
2018-08-12T03:33:28.059Z,2.90
2018-08-12T03:35:55.829Z,2.80
2018-08-12T03:38:23.555Z,2.67
2018-08-12T03:40:51.366Z,2.87
2018-08-12T03:43:19.145Z,2.33
2018-08-12T03:45:46.991Z,2.60
2018-08-12T03:48:14.771Z,2.80
2018-08-12T03:50:42.568Z,2.33
2018-08-12T03:53:10.344Z,2.40
2018-08-12T03:55:38.077Z,2.53
2018-08-12T03:58:05.837Z,2.40
2018-08-12T04:00:33.654Z,2.40
2018-08-12T04:03:01.446Z,2.40
2018-08-12T04:05:29.240Z,2.50
2018-08-12T04:07:56.964Z,2.37
2018-08-12T04:10:24.703Z,2.30
2018-08-12T04:12:52.458Z,2.40
2018-08-12T04:15:20.184Z,2.23
2018-08-12T04:17:48.004Z,1.80
2018-08-12T04:20:15.785Z,2.10
2018-08-12T04:22:43.525Z,2.00
2018-08-12T04:25:11.295Z,1.90
2018-08-12T04:27:39.068Z,1.70
2018-08-12T04:30:08.141Z,1.80
2018-08-12T04:32:35.919Z,1.80
2018-08-12T04:35:04.303Z,1.70
2018-08-12T04:37:32.036Z,1.60
2018-08-12T04:39:59.805Z,1.67
2018-08-12T04:42:27.585Z,1.93
2018-08-12T04:44:55.343Z,1.57
2018-08-12T04:47:23.091Z,1.70
2018-08-12T04:49:50.914Z,1.63
2018-08-12T04:52:18.730Z,1.63
2018-08-12T04:54:46.441Z,1.63
2018-08-12T04:57:14.213Z,1.40
2018-08-12T04:59:41.975Z,1.50
2018-08-12T05:02:09.707Z,1.60
2018-08-12T05:04:37.405Z,1.60
2018-08-12T05:07:05.564Z,1.70
2018-08-12T05:09:33.301Z,1.60
2018-08-12T05:12:01.025Z,1.40
2018-08-12T05:14:28.798Z,1.40
2018-08-12T05:16:56.572Z,1.60
2018-08-12T05:19:24.415Z,1.80
2018-08-12T05:21:52.151Z,1.50
2018-08-12T05:24:19.929Z,1.60
2018-08-12T05:26:47.681Z,1.80
2018-08-12T05:29:15.461Z,1.40
2018-08-12T05:31:43.273Z,1.67
2018-08-12T05:34:11.043Z,1.50
2018-08-12T05:36:38.956Z,1.40
2018-08-12T05:39:09.324Z,1.43
2018-08-12T05:41:37.089Z,1.40
2018-08-12T05:44:05.057Z,1.30
2018-08-12T05:46:32.859Z,1.57
2018-08-12T05:49:00.588Z,1.30
2018-08-12T05:51:28.453Z,1.50
2018-08-12T05:53:56.161Z,1.47
2018-08-12T05:56:23.955Z,1.40
2018-08-12T05:58:51.757Z,1.53
2018-08-12T06:01:19.528Z,1.37
2018-08-12T06:03:47.503Z,1.07
2018-08-12T06:06:15.335Z,1.10
2018-08-12T06:08:43.100Z,1.20
2018-08-12T06:11:10.860Z,1.40
2018-08-12T06:13:38.611Z,1.20
2018-08-12T06:16:06.501Z,1.20
2018-08-12T06:18:34.351Z,1.33
2018-08-12T06:21:02.204Z,1.27
2018-08-12T06:23:30.069Z,1.20
2018-08-12T06:25:57.812Z,1.20
2018-08-12T06:28:25.581Z,1.07
2018-08-12T06:30:53.379Z,1.20
2018-08-12T06:33:21.198Z,1.00
2018-08-12T06:35:48.929Z,1.17
2018-08-12T06:38:16.722Z,1.30
2018-08-12T06:40:44.488Z,1.03
2018-08-12T06:43:12.242Z,1.13
2018-08-12T06:45:40.087Z,1.40
2018-08-12T06:48:07.837Z,1.00
2018-08-12T06:50:35.674Z,1.00
2018-08-12T06:53:03.498Z,1.23
2018-08-12T06:55:31.258Z,1.07
2018-08-12T06:57:59.031Z,1.10
2018-08-12T07:00:26.777Z,1.17
2018-08-12T07:02:54.527Z,0.93
2018-08-12T07:05:22.357Z,0.93
2018-08-12T07:07:50.079Z,0.90
2018-08-12T07:10:17.948Z,1.00
2018-08-12T07:12:45.641Z,1.00
2018-08-12T07:15:17.775Z,0.90
2018-08-12T07:17:46.283Z,0.90
2018-08-12T07:20:14.549Z,0.80
2018-08-12T07:22:42.436Z,0.90
2018-08-12T07:25:11.540Z,0.90
2018-08-12T07:27:40.327Z,1.27
2018-08-12T07:30:09.937Z,1.13
2018-08-12T07:32:37.720Z,1.00
2018-08-12T07:35:06.149Z,0.93
2018-08-12T07:37:33.883Z,0.90
2018-08-12T07:40:01.755Z,0.87
2018-08-12T07:42:29.577Z,0.93
2018-08-12T07:44:57.378Z,0.83
2018-08-12T07:47:25.162Z,0.90
2018-08-12T07:49:52.935Z,0.80
2018-08-12T07:52:20.740Z,0.90
2018-08-12T07:54:48.459Z,0.80
2018-08-12T07:57:16.305Z,1.00
2018-08-12T07:59:44.247Z,1.20
2018-08-12T08:02:12.117Z,0.80
2018-08-12T08:04:39.913Z,0.80
2018-08-12T08:07:07.655Z,0.70
2018-08-12T08:09:35.451Z,0.97
2018-08-12T08:12:03.405Z,0.73
2018-08-12T08:14:31.473Z,0.80
2018-08-12T08:16:59.340Z,0.60
2018-08-12T08:19:27.195Z,0.80
2018-08-12T08:21:54.985Z,0.70
2018-08-12T08:24:22.759Z,0.70
2018-08-12T08:26:50.515Z,0.63
2018-08-12T08:29:18.299Z,0.73
2018-08-12T08:31:46.204Z,0.70
2018-08-12T08:34:13.896Z,0.63
2018-08-12T08:36:41.667Z,0.93
2018-08-12T08:39:11.933Z,0.80
2018-08-12T08:41:39.744Z,0.80
2018-08-12T08:44:07.713Z,0.80
2018-08-12T08:46:35.499Z,0.90
2018-08-12T08:49:03.364Z,0.90
2018-08-12T08:51:31.303Z,1.00
2018-08-12T08:53:59.645Z,0.90
2018-08-12T08:56:27.439Z,1.10
2018-08-12T08:58:55.297Z,1.03
2018-08-12T09:01:23.165Z,1.20
2018-08-12T09:03:50.893Z,0.70
2018-08-12T09:06:18.641Z,1.17
2018-08-12T09:08:47.476Z,0.90
2018-08-12T09:11:15.041Z,1.00
2018-08-12T09:13:42.743Z,1.17
2018-08-12T09:16:10.505Z,0.80
2018-08-12T09:18:38.220Z,0.97
2018-08-12T09:21:06.032Z,0.90
2018-08-12T09:23:33.799Z,0.90
2018-08-12T09:26:01.542Z,1.00
2018-08-12T09:28:29.297Z,0.83
2018-08-12T09:30:57.047Z,0.80
2018-08-12T09:33:24.756Z,0.90
2018-08-12T09:35:52.442Z,0.90
2018-08-12T09:38:20.179Z,0.90
2018-08-12T09:40:47.943Z,1.20
2018-08-12T09:43:15.649Z,1.10
2018-08-12T09:45:43.377Z,0.80
2018-08-12T09:48:11.104Z,1.00
2018-08-12T09:50:38.997Z,1.10
2018-08-12T09:53:06.807Z,1.07
2018-08-12T09:55:34.604Z,1.00
2018-08-12T09:58:02.556Z,0.90
2018-08-12T10:00:35.871Z,1.20
2018-08-12T10:03:03.966Z,1.13
2018-08-12T10:05:31.767Z,0.83
2018-08-12T10:07:59.612Z,1.10
2018-08-12T10:10:27.364Z,1.07
2018-08-12T10:12:55.177Z,1.07
2018-08-12T10:15:22.950Z,1.00
2018-08-12T10:17:52.815Z,1.13
2018-08-12T10:20:20.654Z,0.90
2018-08-12T10:22:48.483Z,1.30
2018-08-12T10:25:16.290Z,1.20
2018-08-12T10:27:44.457Z,1.30
2018-08-12T10:30:13.268Z,1.10
2018-08-12T10:32:41.046Z,1.00
2018-08-12T10:35:10.545Z,1.30
2018-08-12T10:37:38.330Z,1.10
2018-08-12T10:40:08.863Z,1.20
2018-08-12T10:42:36.644Z,1.30
2018-08-12T10:45:06.242Z,1.30
2018-08-12T10:47:34.038Z,1.30
2018-08-12T10:50:01.814Z,1.77
2018-08-12T10:52:29.548Z,1.10
2018-08-12T10:54:57.485Z,0.90
2018-08-12T10:57:25.384Z,0.97
2018-08-12T11:09:35.489Z,0.93
2018-08-12T11:12:03.291Z,1.00
2018-08-12T11:14:31.065Z,1.07
2018-08-12T11:16:58.797Z,1.30
2018-08-12T11:19:26.569Z,1.37
2018-08-12T11:21:54.312Z,1.20
2018-08-12T11:24:22.069Z,1.10
2018-08-12T11:26:49.843Z,1.13
2018-08-12T11:29:17.647Z,1.37
2018-08-12T11:31:45.417Z,1.30
2018-08-12T11:34:13.180Z,1.33
2018-08-12T11:36:41.055Z,1.53
2018-08-12T11:39:10.408Z,1.40
2018-08-12T11:41:38.169Z,1.33
2018-08-12T11:44:06.083Z,1.20
2018-08-12T11:46:33.831Z,1.37
2018-08-12T11:49:01.614Z,1.30
2018-08-12T11:51:29.523Z,1.00
2018-08-12T11:53:57.381Z,1.40
2018-08-12T11:56:25.340Z,1.33
2018-08-12T11:58:53.173Z,1.17
2018-08-12T12:01:20.899Z,1.13
2018-08-12T12:03:48.712Z,1.20
2018-08-12T12:06:16.535Z,1.20
2018-08-12T12:08:44.325Z,1.07
2018-08-12T12:11:12.076Z,1.50
2018-08-12T12:13:39.855Z,1.10
2018-08-12T12:16:07.596Z,1.10
2018-08-12T12:18:35.366Z,1.10
2018-08-12T12:21:03.158Z,1.20
2018-08-12T12:23:30.904Z,1.00
2018-08-12T12:25:58.694Z,1.13
2018-08-12T12:28:26.459Z,1.30
2018-08-12T12:30:54.225Z,1.30
2018-08-12T12:33:21.979Z,1.10
2018-08-12T12:35:49.759Z,1.10
2018-08-12T12:38:17.475Z,1.10
2018-08-12T12:40:45.312Z,1.10
2018-08-12T12:43:13.041Z,1.00
2018-08-12T12:45:40.827Z,1.20
2018-08-12T12:48:08.589Z,1.67
2018-08-12T12:50:36.333Z,1.10
2018-08-12T12:53:04.157Z,1.10
2018-08-12T12:55:31.904Z,1.10
2018-08-12T12:57:59.655Z,1.20
2018-08-12T13:00:27.456Z,1.07
2018-08-12T13:02:55.193Z,1.20
2018-08-12T13:05:23.008Z,1.20
2018-08-12T13:07:51.329Z,1.10
2018-08-12T13:10:19.628Z,1.03
2018-08-12T13:12:47.420Z,1.10
2018-08-12T13:15:16.111Z,0.93
2018-08-12T13:17:43.916Z,1.10
2018-08-12T13:20:15.061Z,1.30
2018-08-12T13:22:44.094Z,1.10
2018-08-12T13:25:13.668Z,1.10
2018-08-12T13:27:42.200Z,1.30
2018-08-12T13:30:11.362Z,1.10
2018-08-12T13:32:39.637Z,1.03
2018-08-12T13:35:07.762Z,1.10
2018-08-12T13:37:36.150Z,1.00
2018-08-12T13:40:05.465Z,1.10
2018-08-12T13:42:33.233Z,1.20
2018-08-12T13:45:01.030Z,1.13
2018-08-12T13:47:28.858Z,1.03
2018-08-12T13:49:56.610Z,1.00
2018-08-12T13:52:24.409Z,1.13
2018-08-12T13:54:52.172Z,0.93
2018-08-12T13:57:19.960Z,1.10
2018-08-12T13:59:47.884Z,1.00
2018-08-12T14:02:15.697Z,1.27
2018-08-12T14:04:43.480Z,0.90
2018-08-12T14:07:11.307Z,1.00
2018-08-12T14:09:39.040Z,1.13
2018-08-12T14:12:06.862Z,1.00
2018-08-12T14:14:34.680Z,1.00
2018-08-12T14:17:02.468Z,1.13
2018-08-12T14:19:30.219Z,1.30
2018-08-12T14:21:58.109Z,1.10
2018-08-12T14:24:25.861Z,1.50
2018-08-12T14:26:53.623Z,1.20
2018-08-12T14:29:21.460Z,1.10
2018-08-12T14:31:49.246Z,1.13
2018-08-12T14:34:17.072Z,1.23
2018-08-12T14:36:44.886Z,1.07
2018-08-12T14:39:12.653Z,1.17
2018-08-12T14:41:40.458Z,1.30
2018-08-12T14:44:08.248Z,1.27
2018-08-12T14:46:36.331Z,1.03
2018-08-12T14:49:04.179Z,1.10
2018-08-12T14:51:32.000Z,1.30
2018-08-12T14:53:59.735Z,1.30
2018-08-12T14:56:27.473Z,1.40
2018-08-12T14:58:55.238Z,1.03
2018-08-12T15:01:23.077Z,1.30
2018-08-12T15:03:50.964Z,1.00
2018-08-12T15:06:18.893Z,1.23
2018-08-12T15:08:46.575Z,1.20
2018-08-12T15:11:14.416Z,1.30
2018-08-12T15:13:42.210Z,1.20
2018-08-12T15:16:09.986Z,1.30
2018-08-12T15:18:37.735Z,1.17
2018-08-12T15:21:05.461Z,1.20
2018-08-12T15:23:33.326Z,1.30
2018-08-12T15:26:01.261Z,1.10
2018-08-12T15:28:29.099Z,1.20
2018-08-12T15:30:56.938Z,1.10
2018-08-12T15:33:24.864Z,1.20
2018-08-12T15:35:52.927Z,1.30
2018-08-12T15:38:20.871Z,1.20
2018-08-12T15:40:48.865Z,1.10
2018-08-12T15:43:16.815Z,1.07
2018-08-12T15:45:44.701Z,1.03
2018-08-12T15:48:12.553Z,1.10
2018-08-12T15:50:40.551Z,1.23
2018-08-12T15:53:08.431Z,1.30
2018-08-12T15:55:36.303Z,1.23
2018-08-12T15:58:04.096Z,1.00
2018-08-12T16:00:31.802Z,1.20
2018-08-12T16:02:59.515Z,1.27
2018-08-12T16:05:27.245Z,1.53
2018-08-12T16:07:54.976Z,1.20
2018-08-12T16:10:23.462Z,1.20
2018-08-12T16:12:52.522Z,1.30
2018-08-12T16:15:20.632Z,1.20
2018-08-12T16:17:48.394Z,1.20
2018-08-12T16:20:16.171Z,1.10
2018-08-12T16:22:44.089Z,1.20
2018-08-12T16:25:14.609Z,1.03
2018-08-12T16:27:42.865Z,1.27
2018-08-12T16:30:11.892Z,1.30
2018-08-12T16:32:39.643Z,1.20
2018-08-12T16:35:09.024Z,1.00
2018-08-12T16:37:36.802Z,1.10
2018-08-12T16:40:06.196Z,1.30
2018-08-12T16:42:34.039Z,1.10
2018-08-12T16:45:01.841Z,1.10
2018-08-12T16:47:29.572Z,1.23
2018-08-12T16:49:57.371Z,1.07
2018-08-12T16:52:25.122Z,1.30
2018-08-12T16:54:53.004Z,1.17
2018-08-12T16:57:20.752Z,1.27
2018-08-12T16:59:48.467Z,1.40
2018-08-12T17:02:16.173Z,1.20
2018-08-12T17:04:43.921Z,1.00
2018-08-12T17:07:11.752Z,1.10
2018-08-12T17:09:39.487Z,1.30
2018-08-12T17:12:07.231Z,0.97
2018-08-12T17:14:34.969Z,1.10
2018-08-12T17:17:02.738Z,1.20
2018-08-12T17:19:30.445Z,1.20
2018-08-12T17:21:58.189Z,1.07
2018-08-12T17:24:25.940Z,1.20
2018-08-12T17:26:53.711Z,1.10
2018-08-12T17:29:21.424Z,1.20
2018-08-12T17:31:49.126Z,1.23
2018-08-12T17:34:16.807Z,1.30
2018-08-12T17:36:44.545Z,1.43
2018-08-12T17:39:12.313Z,1.03
2018-08-12T17:41:40.079Z,1.00
2018-08-12T17:44:07.986Z,1.10
2018-08-12T17:46:35.703Z,1.10
2018-08-12T17:49:03.477Z,1.00
2018-08-12T17:51:31.205Z,1.10
2018-08-12T17:53:59.569Z,1.30
2018-08-12T17:56:27.541Z,1.10
2018-08-12T17:58:55.433Z,1.40
2018-08-12T18:01:23.251Z,2.50
2018-08-12T18:03:51.075Z,3.70
2018-08-12T18:06:18.874Z,4.63
2018-08-12T18:08:46.601Z,2.97
2018-08-12T18:11:14.313Z,3.20
2018-08-12T18:13:42.040Z,2.30
2018-08-12T18:16:10.021Z,1.80
2018-08-12T18:18:37.751Z,1.37
2018-08-12T18:21:05.485Z,1.50
2018-08-12T18:23:33.364Z,1.40
2018-08-12T18:26:01.125Z,1.30
2018-08-12T18:28:28.869Z,1.20
2018-08-12T18:30:56.579Z,1.27
2018-08-12T18:33:24.401Z,1.10
2018-08-12T18:35:52.173Z,1.60
2018-08-12T18:38:19.993Z,1.40
2018-08-12T18:40:47.751Z,1.30
2018-08-12T18:43:15.602Z,1.40
2018-08-12T18:45:43.308Z,1.40
2018-08-12T18:48:11.088Z,1.40
2018-08-12T18:50:38.828Z,1.57
2018-08-12T18:53:06.613Z,1.50
2018-08-12T18:55:34.389Z,1.67
2018-08-12T18:58:02.145Z,1.30
2018-08-12T19:00:29.953Z,1.47
2018-08-12T19:02:57.725Z,1.27
2018-08-12T19:05:25.646Z,1.50
2018-08-12T19:07:53.396Z,1.50
2018-08-12T19:10:21.112Z,1.33
2018-08-12T19:12:48.873Z,1.50
2018-08-12T19:15:16.604Z,1.63
2018-08-12T19:17:44.392Z,2.73
2018-08-12T19:20:12.184Z,1.77
2018-08-12T19:22:40.049Z,1.60
2018-08-12T19:25:08.497Z,1.47
2018-08-12T19:27:36.644Z,1.50
2018-08-12T19:30:06.572Z,1.50
2018-08-12T19:32:34.398Z,1.40
2018-08-12T19:35:02.168Z,1.73
2018-08-12T19:37:30.000Z,1.60
2018-08-12T19:39:57.757Z,1.60
2018-08-12T19:42:25.487Z,1.63
2018-08-12T19:44:53.561Z,1.53
2018-08-12T19:47:21.363Z,1.70
2018-08-12T19:49:49.132Z,1.60
2018-08-12T19:52:16.904Z,1.60
2018-08-12T19:54:44.756Z,1.60
2018-08-12T19:57:12.943Z,1.53
2018-08-12T19:59:40.735Z,1.60
2018-08-12T20:02:08.734Z,1.70
2018-08-12T20:04:36.741Z,2.10
2018-08-12T20:07:04.979Z,1.37
2018-08-12T20:09:32.801Z,1.57
2018-08-12T20:12:00.690Z,1.70
2018-08-12T20:14:28.657Z,1.63
2018-08-12T20:16:56.555Z,1.67
2018-08-12T20:19:24.530Z,1.63
2018-08-12T20:21:53.271Z,1.27
2018-08-12T20:24:21.260Z,1.67
2018-08-12T20:26:49.205Z,1.60
2018-08-12T20:29:16.975Z,1.73
2018-08-12T20:31:44.836Z,1.67
2018-08-12T20:34:12.634Z,1.53
2018-08-12T20:36:40.398Z,1.60
2018-08-12T20:39:10.265Z,1.53
2018-08-12T20:41:38.043Z,1.40
2018-08-12T20:44:05.799Z,1.83
2018-08-12T20:46:33.664Z,1.83
2018-08-12T20:49:01.427Z,1.57
2018-08-12T20:51:29.140Z,1.80
2018-08-12T20:53:56.996Z,1.37
2018-08-12T20:56:24.791Z,1.60
2018-08-12T20:58:52.533Z,1.80
2018-08-12T21:01:20.352Z,1.53
2018-08-12T21:03:48.168Z,1.77
2018-08-12T21:06:15.895Z,1.40
2018-08-12T21:08:43.664Z,1.60
2018-08-12T21:11:11.400Z,1.80
2018-08-12T21:13:39.148Z,1.37
2018-08-12T21:16:06.942Z,1.90
2018-08-12T21:18:34.734Z,1.70
2018-08-12T21:21:02.519Z,1.80
2018-08-12T21:23:30.262Z,1.80
2018-08-12T21:25:58.140Z,1.70
2018-08-12T21:28:25.868Z,1.83
2018-08-12T21:30:53.641Z,1.70
2018-08-12T21:33:21.408Z,2.00
2018-08-12T21:35:49.168Z,1.93
2018-08-12T21:38:16.978Z,1.63
2018-08-12T21:40:44.752Z,2.80
2018-08-12T21:43:12.565Z,2.50
2018-08-12T21:45:40.297Z,2.53
2018-08-12T21:48:08.161Z,2.10
2018-08-12T21:50:35.917Z,1.90
2018-08-12T21:53:03.802Z,1.93
2018-08-12T21:55:31.727Z,1.67
2018-08-12T21:57:59.583Z,1.90
2018-08-12T22:00:27.319Z,1.70
2018-08-12T22:02:55.783Z,1.80
2018-08-12T22:05:24.733Z,1.60
2018-08-12T22:07:52.550Z,1.77
2018-08-12T22:10:20.335Z,2.20
2018-08-12T22:12:48.073Z,1.90
2018-08-12T22:15:15.913Z,1.93
2018-08-12T22:17:43.805Z,2.00
2018-08-12T22:20:11.695Z,2.07
2018-08-12T22:22:39.482Z,1.83
2018-08-12T22:25:07.360Z,2.07
2018-08-12T22:27:35.122Z,2.07
2018-08-12T22:30:03.081Z,1.83
2018-08-12T22:32:30.902Z,2.03
2018-08-12T22:34:58.726Z,2.00
2018-08-12T22:37:26.539Z,1.83
2018-08-12T22:39:54.387Z,1.87
2018-08-12T22:42:22.195Z,2.03
2018-08-12T22:44:49.948Z,1.70
2018-08-12T22:47:17.731Z,2.13
2018-08-12T22:49:45.480Z,1.80
2018-08-12T22:52:13.276Z,1.70
2018-08-12T22:54:41.111Z,1.80
2018-08-12T22:57:08.868Z,1.73
2018-08-12T22:59:36.675Z,1.60
2018-08-12T23:02:05.084Z,1.67
2018-08-12T23:04:32.914Z,1.83
2018-08-12T23:07:00.814Z,1.63
2018-08-12T23:09:28.598Z,1.63
2018-08-12T23:11:56.377Z,1.40
2018-08-12T23:14:24.199Z,1.70
2018-08-12T23:16:58.097Z,1.73
2018-08-12T23:19:25.985Z,1.80
2018-08-12T23:21:54.400Z,1.70
2018-08-12T23:24:22.280Z,1.80
2018-08-12T23:26:50.118Z,2.20
2018-08-12T23:29:17.883Z,2.10
2018-08-12T23:31:45.718Z,1.77
2018-08-12T23:34:13.624Z,1.50
2018-08-12T23:36:41.419Z,2.00
2018-08-12T23:39:10.449Z,1.93
2018-08-12T23:41:38.237Z,2.20
2018-08-12T23:44:06.795Z,1.90
2018-08-12T23:46:34.562Z,1.90
2018-08-12T23:49:02.413Z,1.77
2018-08-12T23:51:30.237Z,1.80
2018-08-12T23:53:57.996Z,2.10
2018-08-12T23:56:26.589Z,1.80
2018-08-12T23:58:54.351Z,1.83
